createdAt,value
2022-08-25T00:02:06.490Z,100658.19
2022-08-25T00:04:37.969Z,100660.47
2022-08-25T00:07:06.506Z,100664.41
2022-08-25T00:09:35.741Z,100672.63
2022-08-25T00:12:05.557Z,100670.78
2022-08-25T00:14:37.346Z,100669.34
2022-08-25T00:17:05.734Z,100670.34
2022-08-25T00:19:35.870Z,100669.34
2022-08-25T00:22:06.390Z,100676.13
2022-08-25T00:24:33.677Z,100671.19
2022-08-25T00:27:01.782Z,100668.50
2022-08-25T00:29:31.373Z,100676.53
2022-08-25T00:31:59.968Z,100667.91
2022-08-25T00:34:34.079Z,100668.34
2022-08-25T00:37:02.460Z,100665.22
2022-08-25T00:39:29.472Z,100671.19
2022-08-25T00:41:57.937Z,100671.78
2022-08-25T00:44:28.676Z,100666.63
2022-08-25T00:46:58.549Z,100665.81
2022-08-25T00:49:48.301Z,100666.84
2022-08-25T00:52:25.218Z,100671.56
2022-08-25T00:55:07.926Z,100664.16
2022-08-25T00:57:44.355Z,100659.00
2022-08-25T01:00:28.529Z,100663.13
2022-08-25T01:02:57.341Z,100664.97
2022-08-25T01:05:25.979Z,100658.63
2022-08-25T01:07:58.530Z,100665.38
2022-08-25T01:10:27.807Z,100661.28
2022-08-25T01:13:03.623Z,100667.63
2022-08-25T01:15:31.177Z,100671.75
2022-08-25T01:17:59.911Z,100667.59
2022-08-25T01:20:30.255Z,100670.09
2022-08-25T01:22:59.428Z,100672.78
2022-08-25T01:26:06.558Z,100672.56
2022-08-25T01:28:34.872Z,100668.84
2022-08-25T01:31:01.904Z,100671.31
2022-08-25T01:33:31.686Z,100678.91
2022-08-25T01:35:58.581Z,100670.28
2022-08-25T01:38:25.458Z,100676.66
2022-08-25T01:40:52.714Z,100672.34
2022-08-25T01:43:37.033Z,100676.66
2022-08-25T01:46:04.024Z,100672.31
2022-08-25T01:48:32.920Z,100672.56
2022-08-25T01:50:59.883Z,100676.00
2022-08-25T01:53:33.317Z,100679.00
2022-08-25T01:56:10.096Z,100678.16
2022-08-25T01:58:41.928Z,100668.44
2022-08-25T02:01:15.990Z,100672.31
2022-08-25T02:03:46.349Z,100674.38
2022-08-25T02:06:19.633Z,100684.13
2022-08-25T02:08:51.025Z,100676.50
2022-08-25T02:11:17.934Z,100679.81
2022-08-25T02:13:45.079Z,100679.28
2022-08-25T02:16:21.421Z,100676.81
2022-08-25T02:18:48.389Z,100668.41
2022-08-25T02:21:15.768Z,100669.66
2022-08-25T02:23:43.446Z,100667.41
2022-08-25T02:26:10.715Z,100672.09
2022-08-25T02:28:37.785Z,100669.38
2022-08-25T02:31:05.974Z,100668.69
2022-08-25T02:33:33.031Z,100673.06
2022-08-25T02:36:01.717Z,100665.13
2022-08-25T02:38:29.441Z,100660.94
2022-08-25T02:40:58.581Z,100671.91
2022-08-25T02:43:27.616Z,100670.97
2022-08-25T02:45:57.754Z,100663.53
2022-08-25T02:48:24.713Z,100662.22
2022-08-25T02:50:52.960Z,100665.53
2022-08-25T02:53:23.308Z,100661.81
2022-08-25T02:55:50.888Z,100659.31
2022-08-25T02:58:17.862Z,100656.66
2022-08-25T03:00:46.015Z,100652.69
2022-08-25T03:03:13.702Z,100651.03
2022-08-25T03:05:40.967Z,100648.56
2022-08-25T03:08:09.084Z,100646.31
2022-08-25T03:10:36.230Z,100659.84
2022-08-25T03:13:03.099Z,100660.47
2022-08-25T03:15:30.538Z,100652.75
2022-08-25T03:17:59.821Z,100658.84
2022-08-25T03:20:27.886Z,100655.56
2022-08-25T03:22:54.745Z,100655.94
2022-08-25T03:25:40.101Z,100653.13
2022-08-25T03:28:08.683Z,100656.97
2022-08-25T03:30:35.614Z,100663.94
2022-08-25T03:33:02.782Z,100654.06
2022-08-25T03:35:29.971Z,100659.63
2022-08-25T03:37:58.794Z,100664.34
2022-08-25T03:40:26.434Z,100662.00
2022-08-25T03:42:55.396Z,100661.00
2022-08-25T03:45:23.360Z,100659.75
2022-08-25T03:47:51.422Z,100650.03
2022-08-25T03:50:20.896Z,100656.56
2022-08-25T03:52:53.825Z,100652.22
2022-08-25T03:55:22.980Z,100641.41
2022-08-25T03:57:50.850Z,100639.91
2022-08-25T04:00:18.687Z,100627.47
2022-08-25T04:02:45.808Z,100631.16
2022-08-25T04:05:13.086Z,100630.97
2022-08-25T04:07:42.763Z,100640.69
2022-08-25T04:10:10.787Z,100638.28
2022-08-25T04:12:38.596Z,100640.53
2022-08-25T04:15:08.190Z,100647.56
2022-08-25T04:17:39.652Z,100637.31
2022-08-25T04:20:09.549Z,100648.28
2022-08-25T04:22:38.486Z,100645.00
2022-08-25T04:25:07.369Z,100651.75
2022-08-25T04:27:34.482Z,100652.44
2022-08-25T04:30:01.509Z,100654.41
2022-08-25T04:32:28.409Z,100649.69
2022-08-25T04:34:55.319Z,100669.31
2022-08-25T04:37:22.209Z,100669.13
2022-08-25T04:39:49.150Z,100667.03
2022-08-25T04:42:16.191Z,100672.03
2022-08-25T04:44:43.132Z,100665.88
2022-08-25T04:47:11.046Z,100662.53
2022-08-25T04:49:37.903Z,100658.72
2022-08-25T04:52:04.905Z,100657.41
2022-08-25T04:54:40.271Z,100646.41
2022-08-25T04:57:07.121Z,100649.09
2022-08-25T04:59:34.283Z,100655.16
2022-08-25T05:02:03.193Z,100648.97
2022-08-25T05:04:33.218Z,100650.72
2022-08-25T05:07:01.219Z,100650.28
2022-08-25T05:09:28.379Z,100650.19
2022-08-25T05:11:55.496Z,100653.44
2022-08-25T05:14:26.310Z,100646.53
2022-08-25T05:16:55.331Z,100655.69
2022-08-25T05:19:23.872Z,100651.63
2022-08-25T05:21:51.127Z,100651.22
2022-08-25T05:24:18.994Z,100648.41
2022-08-25T05:26:45.987Z,100644.47
2022-08-25T05:29:13.095Z,100641.97
2022-08-25T05:31:43.985Z,100642.94
2022-08-25T05:34:12.202Z,100647.91
2022-08-25T05:36:43.108Z,100643.09
2022-08-25T05:39:10.830Z,100652.84
2022-08-25T05:41:38.234Z,100651.63
2022-08-25T05:44:05.280Z,100649.69
2022-08-25T05:46:32.810Z,100657.72
2022-08-25T05:48:59.686Z,100659.47
2022-08-25T05:51:27.232Z,100663.63
2022-08-25T05:53:54.213Z,100656.50
2022-08-25T05:56:21.444Z,100657.44
2022-08-25T05:58:48.860Z,100647.88
2022-08-25T06:01:45.257Z,100642.41
2022-08-25T06:04:13.729Z,100640.16
2022-08-25T06:06:41.898Z,100642.63
2022-08-25T06:09:10.487Z,100640.03
2022-08-25T06:11:40.170Z,100638.94
2022-08-25T06:14:09.776Z,100639.06
2022-08-25T06:16:38.946Z,100642.16
2022-08-25T06:19:07.828Z,100641.41
2022-08-25T06:21:35.238Z,100649.56
2022-08-25T06:24:02.727Z,100649.28
2022-08-25T06:26:29.571Z,100658.00
2022-08-25T06:28:56.631Z,100650.63
2022-08-25T06:31:24.529Z,100643.34
2022-08-25T06:33:52.260Z,100653.34
2022-08-25T06:36:19.811Z,100647.34
2022-08-25T06:38:47.842Z,100641.50
2022-08-25T06:41:16.473Z,100645.31
2022-08-25T06:43:47.976Z,100647.13
2022-08-25T06:46:21.369Z,100646.34
2022-08-25T06:48:49.299Z,100640.56
2022-08-25T06:51:19.258Z,100642.16
2022-08-25T06:53:48.915Z,100640.19
2022-08-25T06:56:21.794Z,100638.22
2022-08-25T06:58:51.029Z,100637.91
2022-08-25T07:01:23.621Z,100639.47
2022-08-25T07:03:57.615Z,100641.88
2022-08-25T07:06:26.997Z,100641.38
2022-08-25T07:08:54.599Z,100629.88
2022-08-25T07:11:21.531Z,100636.59
2022-08-25T07:13:49.192Z,100625.19
2022-08-25T07:16:18.408Z,100627.13
2022-08-25T07:18:46.951Z,100625.97
2022-08-25T07:21:15.016Z,100624.22
2022-08-25T07:23:43.106Z,100618.63
2022-08-25T07:26:39.431Z,100624.19
2022-08-25T07:29:12.795Z,100616.78
2022-08-25T07:31:40.394Z,100610.44
2022-08-25T07:34:27.511Z,100611.06
2022-08-25T07:36:57.168Z,100610.63
2022-08-25T07:39:25.345Z,100608.97
2022-08-25T07:41:53.224Z,100607.00
2022-08-25T07:44:22.210Z,100613.66
2022-08-25T07:46:50.742Z,100604.78
2022-08-25T07:49:23.155Z,100612.84
2022-08-25T07:52:03.231Z,100606.06
2022-08-25T07:54:33.953Z,100602.53
2022-08-25T07:57:06.977Z,100608.72
2022-08-25T07:59:39.675Z,100609.03
2022-08-25T08:02:18.677Z,100615.09
2022-08-25T08:04:51.262Z,100617.44
2022-08-25T08:07:41.832Z,100618.38
2022-08-25T08:10:42.201Z,100613.75
2022-08-25T08:12:59.735Z,100614.59
2022-08-25T08:15:29.747Z,100619.13
2022-08-25T08:17:58.695Z,100608.47
2022-08-25T08:20:27.054Z,100607.50
2022-08-25T08:22:54.116Z,100604.34
2022-08-25T08:25:23.054Z,100620.28
2022-08-25T08:27:55.323Z,100610.81
2022-08-25T08:30:26.072Z,100615.59
2022-08-25T08:33:19.588Z,100610.19
2022-08-25T08:35:42.062Z,100615.06
2022-08-25T08:38:14.569Z,100617.94
2022-08-25T08:41:24.092Z,100629.34
2022-08-25T08:47:03.655Z,100621.72
2022-08-25T08:49:55.065Z,100621.25
2022-08-25T08:52:36.797Z,100624.16
2022-08-25T08:55:12.825Z,100617.38
2022-08-25T09:00:17.883Z,100611.88
2022-08-25T09:03:04.086Z,100606.28
2022-08-25T09:05:47.258Z,100604.19
2022-08-25T09:08:20.553Z,100609.28
2022-08-25T09:11:10.207Z,100603.44
2022-08-25T09:14:17.396Z,100613.66
2022-08-25T09:17:11.302Z,100609.22
2022-08-25T09:20:02.667Z,100601.44
2022-08-25T09:22:42.251Z,100599.66
2022-08-25T09:28:39.717Z,100589.31
2022-08-25T09:31:33.190Z,100581.22
2022-08-25T09:34:05.831Z,100585.16
2022-08-25T09:36:37.502Z,100589.19
2022-08-25T09:39:06.612Z,100569.75
2022-08-25T09:41:51.296Z,100561.59
2022-08-25T09:44:39.499Z,100559.59
2022-08-25T09:47:25.536Z,100554.47
2022-08-25T09:50:04.401Z,100543.47
2022-08-25T09:52:38.743Z,100562.34
2022-08-25T09:55:08.265Z,100542.72
2022-08-25T09:57:44.485Z,100542.84
2022-08-25T10:00:18.329Z,100543.50
2022-08-25T10:03:06.781Z,100542.97
2022-08-25T10:05:46.028Z,100536.41
2022-08-25T10:08:26.561Z,100535.13
2022-08-25T10:10:57.591Z,100532.41
2022-08-25T10:13:35.619Z,100523.50
2022-08-25T10:16:36.447Z,100509.97
2022-08-25T10:19:12.778Z,100514.97
2022-08-25T10:21:42.658Z,100517.22
2022-08-25T10:24:12.658Z,100511.81
2022-08-25T10:26:58.636Z,100495.72
2022-08-25T10:29:50.839Z,100486.75
2022-08-25T10:32:51.732Z,100473.66
2022-08-25T10:35:42.843Z,100486.84
2022-08-25T10:38:36.139Z,100477.53
2022-08-25T10:41:25.822Z,100478.53
2022-08-25T10:44:06.528Z,100460.75
2022-08-25T10:47:40.917Z,100453.88
2022-08-25T10:50:45.425Z,100465.69
2022-08-25T10:53:50.772Z,100452.03
2022-08-25T10:56:25.088Z,100443.66
2022-08-25T10:59:31.670Z,100445.50
2022-08-25T11:02:32.262Z,100443.66
2022-08-25T11:05:29.610Z,100440.28
2022-08-25T11:08:24.741Z,100418.78
2022-08-25T11:11:25.735Z,100431.31
2022-08-25T11:14:09.390Z,100428.34
2022-08-25T11:17:02.051Z,100421.81
2022-08-25T11:19:35.473Z,100425.06
2022-08-25T11:22:19.276Z,100416.38
2022-08-25T11:25:13.128Z,100418.03
2022-08-25T11:27:57.729Z,100419.63
2022-08-25T11:30:25.887Z,100416.84
2022-08-25T11:32:54.835Z,100421.31
2022-08-25T11:35:37.355Z,100418.31
2022-08-25T11:39:11.491Z,100408.94
2022-08-25T11:42:15.404Z,100407.94
2022-08-25T11:45:21.333Z,100411.69
2022-08-25T11:47:53.921Z,100418.75
2022-08-25T11:50:30.145Z,100412.91
2022-08-25T11:53:26.644Z,100410.81
2022-08-25T11:56:04.272Z,100403.25
2022-08-25T11:58:51.122Z,100395.09
2022-08-25T12:01:40.208Z,100391.22
2022-08-25T12:04:16.321Z,100399.31
2022-08-25T12:07:11.127Z,100386.56
2022-08-25T12:09:55.921Z,100386.31
2022-08-25T12:12:59.426Z,100386.56
2022-08-25T12:15:31.211Z,100388.41
2022-08-25T12:18:33.759Z,100391.38
2022-08-25T12:21:02.165Z,100387.69
2022-08-25T12:23:38.273Z,100381.81
2022-08-25T12:26:47.967Z,100381.16
2022-08-25T12:29:49.660Z,100364.28
2022-08-25T12:32:25.981Z,100369.81
2022-08-25T12:35:30.048Z,100371.78
2022-08-25T12:37:59.471Z,100368.84
2022-08-25T12:40:52.755Z,100359.72
2022-08-25T12:43:19.866Z,100374.88
2022-08-25T12:45:54.426Z,100368.84
2022-08-25T12:48:27.918Z,100372.09
2022-08-25T12:51:16.539Z,100376.19
2022-08-25T12:53:50.888Z,100364.84
2022-08-25T12:56:42.447Z,100364.59
2022-08-25T12:59:25.032Z,100363.63
2022-08-25T13:02:36.520Z,100369.81
2022-08-25T13:05:03.397Z,100367.91
2022-08-25T13:07:48.123Z,100363.63
2022-08-25T13:10:42.315Z,100358.25
2022-08-25T13:13:56.234Z,100350.91
2022-08-25T13:16:30.205Z,100354.06
2022-08-25T13:19:01.540Z,100340.28
2022-08-25T13:21:41.641Z,100334.34
2022-08-25T13:24:30.665Z,100327.03
2022-08-25T13:27:22.740Z,100321.69
2022-08-25T13:29:59.911Z,100326.81
2022-08-25T13:32:36.020Z,100324.94
2022-08-25T13:35:25.565Z,100316.88
2022-08-25T13:37:55.292Z,100319.88
2022-08-25T13:40:32.603Z,100331.25
2022-08-25T13:43:07.964Z,100322.44
2022-08-25T13:45:48.140Z,100321.06
2022-08-25T13:48:37.092Z,100314.69
2022-08-25T13:51:21.509Z,100311.75
2022-08-25T13:53:54.010Z,100298.03
2022-08-25T13:56:40.959Z,100298.88
2022-08-25T13:59:39.989Z,100299.44
2022-08-25T14:02:19.656Z,100289.78
2022-08-25T14:04:51.806Z,100292.19
2022-08-25T14:07:22.864Z,100296.34
2022-08-25T14:09:56.929Z,100296.38
2022-08-25T14:12:48.229Z,100297.19
2022-08-25T14:15:22.101Z,100299.59
2022-08-25T14:18:03.678Z,100291.78
2022-08-25T14:20:34.230Z,100292.28
2022-08-25T14:23:09.783Z,100291.25
2022-08-25T14:25:37.447Z,100283.13
2022-08-25T14:28:23.739Z,100284.22
2022-08-25T14:31:09.571Z,100273.94
2022-08-25T14:33:52.860Z,100265.84
2022-08-25T14:36:20.934Z,100269.63
2022-08-25T14:38:54.470Z,100272.38
2022-08-25T14:41:23.780Z,100264.00
2022-08-25T14:43:50.819Z,100262.63
2022-08-25T14:46:25.843Z,100264.25
2022-08-25T14:49:00.899Z,100260.97
2022-08-25T14:51:34.499Z,100255.53
2022-08-25T14:54:07.929Z,100257.16
2022-08-25T14:56:36.409Z,100246.06
2022-08-25T14:59:04.805Z,100243.84
2022-08-25T15:01:32.079Z,100247.88
2022-08-25T15:04:05.962Z,100246.00
2022-08-25T15:06:36.296Z,100244.16
2022-08-25T15:09:08.405Z,100241.44
2022-08-25T15:11:36.586Z,100238.16
2022-08-25T15:14:10.900Z,100243.06
2022-08-25T15:16:42.848Z,100238.16
2022-08-25T15:19:14.522Z,100232.44
2022-08-25T15:21:44.701Z,100233.25
2022-08-25T15:24:13.193Z,100231.59
2022-08-25T15:26:57.663Z,100228.31
2022-08-25T15:29:29.181Z,100233.16
2022-08-25T15:31:57.456Z,100223.97
2022-08-25T15:34:24.330Z,100223.97
2022-08-25T15:36:51.497Z,100228.56
2022-08-25T15:39:19.189Z,100223.69
2022-08-25T15:41:51.641Z,100222.31
2022-08-25T15:44:19.015Z,100220.94
2022-08-25T15:46:49.560Z,100216.81
2022-08-25T15:49:20.848Z,100217.66
2022-08-25T15:51:52.418Z,100213.28
2022-08-25T15:54:20.586Z,100211.44
2022-08-25T15:56:47.853Z,100212.50
2022-08-25T15:59:15.493Z,100207.38
2022-08-25T16:01:46.593Z,100210.34
2022-08-25T16:04:14.453Z,100213.59
2022-08-25T16:06:41.682Z,100214.66
2022-08-25T16:09:08.601Z,100208.94
2022-08-25T16:11:35.589Z,100210.81
2022-08-25T16:14:06.128Z,100208.09
2022-08-25T16:16:33.918Z,100201.91
2022-08-25T16:19:01.815Z,100204.91
2022-08-25T16:21:35.010Z,100193.50
2022-08-25T16:24:07.711Z,100198.59
2022-08-25T16:26:48.167Z,100192.13
2022-08-25T16:29:16.544Z,100189.78
2022-08-25T16:31:44.835Z,100185.72
2022-08-25T16:34:12.041Z,100192.44
2022-08-25T16:36:39.995Z,100182.69
2022-08-25T16:39:10.095Z,100192.44
2022-08-25T16:41:37.301Z,100183.19
2022-08-25T16:44:11.152Z,100192.13
2022-08-25T16:46:40.760Z,100188.88
2022-08-25T16:49:09.214Z,100194.03
2022-08-25T16:51:38.435Z,100200.78
2022-08-25T16:54:30.715Z,100194.31
2022-08-25T16:56:57.815Z,100189.09
2022-08-25T16:59:26.176Z,100190.75
2022-08-25T17:01:53.836Z,100198.28
2022-08-25T17:04:21.230Z,100191.78
2022-08-25T17:06:56.460Z,100192.63
2022-08-25T17:09:24.045Z,100184.75
2022-08-25T17:11:54.342Z,100183.69
2022-08-25T17:14:22.393Z,100183.38
2022-08-25T17:16:51.177Z,100185.03
2022-08-25T17:19:18.599Z,100183.16
2022-08-25T17:21:46.375Z,100185.31
2022-08-25T17:24:14.208Z,100181.50
2022-08-25T17:26:43.330Z,100186.78
2022-08-25T17:29:11.451Z,100182.47
2022-08-25T17:31:40.015Z,100177.56
2022-08-25T17:34:10.489Z,100187.31
2022-08-25T17:36:39.921Z,100183.78
2022-08-25T17:39:09.941Z,100186.72
2022-08-25T17:41:37.750Z,100189.41
2022-08-25T17:44:05.720Z,100193.16
2022-08-25T17:46:33.125Z,100191.28
2022-08-25T17:49:00.003Z,100197.50
2022-08-25T17:51:27.287Z,100194.19
2022-08-25T17:53:58.990Z,100190.44
2022-08-25T17:56:27.725Z,100186.38
2022-08-25T17:58:56.373Z,100192.50
2022-08-25T18:01:26.113Z,100192.97
2022-08-25T18:03:54.318Z,100193.50
2022-08-25T18:06:24.854Z,100188.88
2022-08-25T18:08:56.367Z,100192.03
2022-08-25T18:11:26.320Z,100188.78
2022-08-25T18:13:55.493Z,100203.78
2022-08-25T18:16:24.498Z,100194.22
2022-08-25T18:18:52.939Z,100195.81
2022-08-25T18:21:21.388Z,100193.53
2022-08-25T18:23:49.576Z,100195.13
2022-08-25T18:26:17.183Z,100199.94
2022-08-25T18:28:48.901Z,100204.22
2022-08-25T18:31:15.910Z,100206.50
2022-08-25T18:33:47.278Z,100202.97
2022-08-25T18:36:20.327Z,100196.75
2022-08-25T18:39:06.946Z,100203.38
2022-08-25T18:41:38.843Z,100199.16
2022-08-25T18:44:08.423Z,100200.69
2022-08-25T18:46:38.188Z,100203.81
2022-08-25T18:49:05.841Z,100204.84
2022-08-25T18:51:33.198Z,100206.41
2022-08-25T18:54:01.282Z,100208.78
2022-08-25T18:56:28.812Z,100209.75
2022-08-25T18:58:57.051Z,100212.41
2022-08-25T19:01:24.113Z,100202.34
2022-08-25T19:03:51.163Z,100207.53
2022-08-25T19:06:19.205Z,100212.19
2022-08-25T19:08:46.819Z,100211.00
2022-08-25T19:11:14.791Z,100209.16
2022-08-25T19:13:43.664Z,100205.66
2022-08-25T19:16:20.276Z,100199.22
2022-08-25T19:18:48.967Z,100207.38
2022-08-25T19:21:22.497Z,100209.16
2022-08-25T19:23:51.312Z,100206.78
2022-08-25T19:26:19.599Z,100214.00
2022-08-25T19:28:48.908Z,100210.88
2022-08-25T19:31:18.771Z,100210.69
2022-08-25T19:33:51.296Z,100215.69
2022-08-25T19:36:23.089Z,100216.84
2022-08-25T19:38:52.378Z,100219.91
2022-08-25T19:41:22.048Z,100220.41
2022-08-25T19:43:56.478Z,100221.75
2022-08-25T19:46:35.262Z,100225.50
2022-08-25T19:49:08.782Z,100225.88
2022-08-25T19:51:44.312Z,100224.50
2022-08-25T19:54:15.251Z,100224.50
2022-08-25T19:56:54.875Z,100232.69
2022-08-25T19:59:34.308Z,100236.78
2022-08-25T20:02:11.666Z,100232.72
2022-08-25T20:04:38.535Z,100239.47
2022-08-25T20:07:06.758Z,100242.06
2022-08-25T20:09:40.590Z,100237.75
2022-08-25T20:12:10.679Z,100237.63
2022-08-25T20:14:38.206Z,100240.44
2022-08-25T20:17:14.358Z,100238.69
2022-08-25T20:19:50.120Z,100231.47
2022-08-25T20:22:18.291Z,100240.09
2022-08-25T20:24:51.044Z,100234.13
2022-08-25T20:27:33.483Z,100239.97
2022-08-25T20:30:02.703Z,100243.00
2022-08-25T20:32:32.367Z,100241.63
2022-08-25T20:35:00.573Z,100241.03
2022-08-25T20:37:27.484Z,100240.22
2022-08-25T20:39:54.873Z,100247.69
2022-08-25T20:42:21.963Z,100245.47
2022-08-25T20:44:48.895Z,100245.59
2022-08-25T20:47:16.088Z,100240.13
2022-08-25T20:49:45.616Z,100241.41
2022-08-25T20:52:14.017Z,100239.41
2022-08-25T20:54:46.962Z,100239.78
2022-08-25T20:57:18.138Z,100239.66
2022-08-25T20:59:46.521Z,100236.97
2022-08-25T21:02:14.118Z,100237.31
2022-08-25T21:04:49.951Z,100238.59
2022-08-25T21:07:18.439Z,100235.44
2022-08-25T21:09:45.675Z,100235.81
2022-08-25T21:12:12.875Z,100240.91
2022-08-25T21:14:41.617Z,100244.28
2022-08-25T21:17:12.594Z,100241.53
2022-08-25T21:19:40.228Z,100243.97
2022-08-25T21:22:10.741Z,100245.03
2022-08-25T21:24:38.300Z,100244.63
2022-08-25T21:27:05.416Z,100249.50
2022-08-25T21:29:33.238Z,100247.22
2022-08-25T21:32:00.503Z,100242.16
2022-08-25T21:34:29.279Z,100245.53
2022-08-25T21:36:58.322Z,100245.53
2022-08-25T21:39:29.674Z,100247.53
2022-08-25T21:42:00.123Z,100249.41
2022-08-25T21:44:28.425Z,100251.28
2022-08-25T21:46:56.094Z,100247.28
2022-08-25T21:49:24.052Z,100246.47
2022-08-25T21:52:00.542Z,100248.34
2022-08-25T21:54:29.048Z,100244.47
2022-08-25T21:57:01.380Z,100245.28
2022-08-25T21:59:40.434Z,100249.38
2022-08-25T22:02:11.539Z,100249.97
2022-08-25T22:04:39.602Z,100246.56
2022-08-25T22:07:08.394Z,100245.88
2022-08-25T22:09:36.514Z,100246.22
2022-08-25T22:12:04.646Z,100246.66
2022-08-25T22:14:32.330Z,100248.44
2022-08-25T22:16:59.675Z,100240.97
2022-08-25T22:19:26.979Z,100234.97
2022-08-25T22:21:54.923Z,100240.47
2022-08-25T22:24:22.164Z,100239.06
2022-08-25T22:26:50.051Z,100245.41
2022-08-25T22:29:24.873Z,100240.13
2022-08-25T22:32:00.715Z,100238.44
2022-08-25T22:34:32.566Z,100237.25
2022-08-25T22:37:04.407Z,100239.88
2022-08-25T22:39:34.165Z,100235.78
2022-08-25T22:42:14.578Z,100244.28
2022-08-25T22:44:44.526Z,100229.59
2022-08-25T22:47:12.318Z,100233.44
2022-08-25T22:49:40.237Z,100234.25
2022-08-25T22:52:09.419Z,100233.00
2022-08-25T22:54:40.989Z,100234.25
2022-08-25T22:57:07.907Z,100231.88
2022-08-25T22:59:34.757Z,100240.97
2022-08-25T23:02:01.751Z,100229.41
2022-08-25T23:04:29.241Z,100235.53
2022-08-25T23:06:56.348Z,100227.44
2022-08-25T23:09:23.628Z,100235.19
2022-08-25T23:11:51.951Z,100227.16
2022-08-25T23:14:18.972Z,100231.00
2022-08-25T23:16:46.078Z,100223.19
2022-08-25T23:19:14.795Z,100228.75
2022-08-25T23:22:02.131Z,100231.16
2022-08-25T23:24:31.022Z,100228.78
2022-08-25T23:26:59.539Z,100228.38
2022-08-25T23:29:28.027Z,100235.16
2022-08-25T23:31:55.923Z,100224.53
2022-08-25T23:34:23.979Z,100230.88
2022-08-25T23:36:51.200Z,100227.72
2022-08-25T23:39:18.157Z,100219.84
2022-08-25T23:41:45.042Z,100221.41
2022-08-25T23:44:17.076Z,100228.59
2022-08-25T23:46:47.073Z,100219.72
2022-08-25T23:49:18.104Z,100225.66
2022-08-25T23:51:51.851Z,100226.53
2022-08-25T23:54:21.088Z,100219.31
2022-08-25T23:56:52.475Z,100226.53
2022-08-25T23:59:24.254Z,100225.19
